sensor_id;sensor_type;location;lat;lon;timestamp;temperature;humidity
78708;SHT31;68037;51.978;5.650;2023-02-28T00:02:25;5.7;55.8
78708;SHT31;68037;51.978;5.650;2023-02-28T00:04:54;5.6;56.1
78708;SHT31;68037;51.978;5.650;2023-02-28T00:07:29;5.6;56.2
78708;SHT31;68037;51.978;5.650;2023-02-28T00:09:59;5.6;56.2
78708;SHT31;68037;51.978;5.650;2023-02-28T00:12:29;5.6;56.3
78708;SHT31;68037;51.978;5.650;2023-02-28T00:15:00;5.6;56.5
78708;SHT31;68037;51.978;5.650;2023-02-28T00:17:30;5.6;56.5
78708;SHT31;68037;51.978;5.650;2023-02-28T00:19:59;5.6;57.0
78708;SHT31;68037;51.978;5.650;2023-02-28T00:22:34;5.6;56.6
78708;SHT31;68037;51.978;5.650;2023-02-28T00:25:04;5.6;56.4
78708;SHT31;68037;51.978;5.650;2023-02-28T00:27:37;5.6;56.9
78708;SHT31;68037;51.978;5.650;2023-02-28T00:30:14;5.7;57.4
78708;SHT31;68037;51.978;5.650;2023-02-28T16:39:58;12.3;27.2
78708;SHT31;68037;51.978;5.650;2023-02-28T16:42:28;11.9;28.3
78708;SHT31;68037;51.978;5.650;2023-02-28T16:44:57;11.7;28.1
78708;SHT31;68037;51.978;5.650;2023-02-28T16:47:27;11.6;28.0
78708;SHT31;68037;51.978;5.650;2023-02-28T16:50:00;11.6;29.0
78708;SHT31;68037;51.978;5.650;2023-02-28T16:52:29;11.6;28.3
78708;SHT31;68037;51.978;5.650;2023-02-28T16:54:59;11.5;28.9
78708;SHT31;68037;51.978;5.650;2023-02-28T16:57:28;11.5;29.3
78708;SHT31;68037;51.978;5.650;2023-02-28T17:00:00;11.4;29.7
78708;SHT31;68037;51.978;5.650;2023-02-28T17:02:30;11.3;29.5
78708;SHT31;68037;51.978;5.650;2023-02-28T17:05:01;11.2;29.0
78708;SHT31;68037;51.978;5.650;2023-02-28T17:07:31;11.0;29.5
78708;SHT31;68037;51.978;5.650;2023-02-28T17:10:01;10.8;30.0
78708;SHT31;68037;51.978;5.650;2023-02-28T17:12:37;10.7;30.4
78708;SHT31;68037;51.978;5.650;2023-02-28T17:15:20;10.6;30.4
78708;SHT31;68037;51.978;5.650;2023-02-28T17:17:57;10.6;30.4
78708;SHT31;68037;51.978;5.650;2023-02-28T17:20:30;10.6;30.7
78708;SHT31;68037;51.978;5.650;2023-02-28T17:23:11;10.7;31.4
78708;SHT31;68037;51.978;5.650;2023-02-28T17:25:40;10.7;29.9
78708;SHT31;68037;51.978;5.650;2023-02-28T17:28:15;10.8;30.4
78708;SHT31;68037;51.978;5.650;2023-02-28T17:30:44;10.8;29.9
78708;SHT31;68037;51.978;5.650;2023-02-28T17:33:21;10.8;30.5
78708;SHT31;68037;51.978;5.650;2023-02-28T17:35:52;10.9;31.0
78708;SHT31;68037;51.978;5.650;2023-02-28T17:38:22;10.9;31.2
78708;SHT31;68037;51.978;5.650;2023-02-28T17:40:52;10.9;30.2
78708;SHT31;68037;51.978;5.650;2023-02-28T17:43:25;10.9;29.5
78708;SHT31;68037;51.978;5.650;2023-02-28T17:45:57;10.8;29.0
78708;SHT31;68037;51.978;5.650;2023-02-28T17:48:29;10.8;29.1
78708;SHT31;68037;51.978;5.650;2023-02-28T17:50:58;10.6;29.2
78708;SHT31;68037;51.978;5.650;2023-02-28T17:53:28;10.5;29.7
78708;SHT31;68037;51.978;5.650;2023-02-28T17:55:57;10.5;30.4
78708;SHT31;68037;51.978;5.650;2023-02-28T17:58:30;10.4;30.3
78708;SHT31;68037;51.978;5.650;2023-02-28T18:01:00;10.4;29.9
78708;SHT31;68037;51.978;5.650;2023-02-28T18:03:29;10.4;30.0
78708;SHT31;68037;51.978;5.650;2023-02-28T18:05:59;10.4;29.3
78708;SHT31;68037;51.978;5.650;2023-02-28T18:08:30;10.2;29.6
78708;SHT31;68037;51.978;5.650;2023-02-28T18:11:02;10.1;30.1
78708;SHT31;68037;51.978;5.650;2023-02-28T18:13:32;9.9;30.9
78708;SHT31;68037;51.978;5.650;2023-02-28T18:16:04;9.8;30.9
78708;SHT31;68037;51.978;5.650;2023-02-28T18:18:33;9.7;30.9
78708;SHT31;68037;51.978;5.650;2023-02-28T18:21:05;9.6;31.0
78708;SHT31;68037;51.978;5.650;2023-02-28T18:23:36;9.5;31.4
78708;SHT31;68037;51.978;5.650;2023-02-28T18:26:10;9.4;31.3
78708;SHT31;68037;51.978;5.650;2023-02-28T18:28:40;9.3;32.0
78708;SHT31;68037;51.978;5.650;2023-02-28T18:31:12;9.2;32.6
78708;SHT31;68037;51.978;5.650;2023-02-28T18:33:42;9.1;32.4
78708;SHT31;68037;51.978;5.650;2023-02-28T18:36:12;9.1;33.5
78708;SHT31;68037;51.978;5.650;2023-02-28T18:38:42;9.0;33.9
78708;SHT31;68037;51.978;5.650;2023-02-28T18:41:12;8.9;33.7
78708;SHT31;68037;51.978;5.650;2023-02-28T18:43:43;8.9;33.8
78708;SHT31;68037;51.978;5.650;2023-02-28T18:46:14;8.8;33.7
78708;SHT31;68037;51.978;5.650;2023-02-28T18:48:44;8.8;34.0
78708;SHT31;68037;51.978;5.650;2023-02-28T18:51:16;8.7;34.6
78708;SHT31;68037;51.978;5.650;2023-02-28T18:53:46;8.7;34.6
78708;SHT31;68037;51.978;5.650;2023-02-28T18:56:18;8.6;35.1
78708;SHT31;68037;51.978;5.650;2023-02-28T18:58:50;8.6;35.1
78708;SHT31;68037;51.978;5.650;2023-02-28T19:01:22;8.6;35.5
78708;SHT31;68037;51.978;5.650;2023-02-28T19:03:53;8.6;36.1
78708;SHT31;68037;51.978;5.650;2023-02-28T19:06:24;8.6;36.0
78708;SHT31;68037;51.978;5.650;2023-02-28T19:08:55;8.5;36.5
78708;SHT31;68037;51.978;5.650;2023-02-28T19:11:26;8.5;36.7
78708;SHT31;68037;51.978;5.650;2023-02-28T19:13:56;8.4;36.2
78708;SHT31;68037;51.978;5.650;2023-02-28T19:16:28;8.4;36.4
78708;SHT31;68037;51.978;5.650;2023-02-28T19:18:59;8.3;36.9
78708;SHT31;68037;51.978;5.650;2023-02-28T19:21:30;8.4;37.3
78708;SHT31;68037;51.978;5.650;2023-02-28T19:24:04;8.4;37.0
78708;SHT31;68037;51.978;5.650;2023-02-28T19:26:33;8.4;36.3
78708;SHT31;68037;51.978;5.650;2023-02-28T19:29:05;8.4;36.4
78708;SHT31;68037;51.978;5.650;2023-02-28T19:31:34;8.4;37.0
78708;SHT31;68037;51.978;5.650;2023-02-28T19:34:04;8.3;36.2
78708;SHT31;68037;51.978;5.650;2023-02-28T19:36:34;8.3;37.5
78708;SHT31;68037;51.978;5.650;2023-02-28T19:39:04;8.2;37.3
78708;SHT31;68037;51.978;5.650;2023-02-28T19:41:34;8.2;37.7
78708;SHT31;68037;51.978;5.650;2023-02-28T19:44:03;8.2;37.3
78708;SHT31;68037;51.978;5.650;2023-02-28T19:46:33;8.2;37.3
78708;SHT31;68037;51.978;5.650;2023-02-28T19:49:03;8.1;37.3
78708;SHT31;68037;51.978;5.650;2023-02-28T19:51:33;8.1;36.7
78708;SHT31;68037;51.978;5.650;2023-02-28T19:54:04;8.0;37.2
78708;SHT31;68037;51.978;5.650;2023-02-28T19:56:34;8.0;37.6
78708;SHT31;68037;51.978;5.650;2023-02-28T19:59:03;7.9;38.2
78708;SHT31;68037;51.978;5.650;2023-02-28T20:01:35;7.8;37.9
78708;SHT31;68037;51.978;5.650;2023-02-28T20:04:05;7.8;38.1
78708;SHT31;68037;51.978;5.650;2023-02-28T20:06:35;7.7;38.3
78708;SHT31;68037;51.978;5.650;2023-02-28T20:09:05;7.8;38.4
78708;SHT31;68037;51.978;5.650;2023-02-28T20:11:34;7.8;39.1
78708;SHT31;68037;51.978;5.650;2023-02-28T20:14:04;7.8;38.7
78708;SHT31;68037;51.978;5.650;2023-02-28T20:16:33;7.7;38.6
78708;SHT31;68037;51.978;5.650;2023-02-28T20:19:03;7.7;38.7
78708;SHT31;68037;51.978;5.650;2023-02-28T20:21:33;7.6;38.8
78708;SHT31;68037;51.978;5.650;2023-02-28T20:24:03;7.6;39.1
78708;SHT31;68037;51.978;5.650;2023-02-28T20:26:32;7.5;39.1
78708;SHT31;68037;51.978;5.650;2023-02-28T20:29:02;7.4;38.8
78708;SHT31;68037;51.978;5.650;2023-02-28T20:31:33;7.4;39.9
78708;SHT31;68037;51.978;5.650;2023-02-28T20:34:04;7.3;40.3
78708;SHT31;68037;51.978;5.650;2023-02-28T20:36:33;7.3;39.8
78708;SHT31;68037;51.978;5.650;2023-02-28T20:39:03;7.2;39.9
78708;SHT31;68037;51.978;5.650;2023-02-28T20:41:33;7.2;39.7
78708;SHT31;68037;51.978;5.650;2023-02-28T20:44:03;7.1;40.0
78708;SHT31;68037;51.978;5.650;2023-02-28T20:46:33;7.1;40.4
78708;SHT31;68037;51.978;5.650;2023-02-28T20:49:03;7.0;39.9
78708;SHT31;68037;51.978;5.650;2023-02-28T20:51:33;7.0;40.4
78708;SHT31;68037;51.978;5.650;2023-02-28T20:54:07;6.9;39.8
78708;SHT31;68037;51.978;5.650;2023-02-28T20:56:37;6.9;40.0
78708;SHT31;68037;51.978;5.650;2023-02-28T20:59:09;6.9;40.0
78708;SHT31;68037;51.978;5.650;2023-02-28T21:01:39;6.8;40.6
78708;SHT31;68037;51.978;5.650;2023-02-28T21:04:12;6.9;40.4
78708;SHT31;68037;51.978;5.650;2023-02-28T21:06:42;6.9;40.5
78708;SHT31;68037;51.978;5.650;2023-02-28T21:09:14;6.9;40.5
78708;SHT31;68037;51.978;5.650;2023-02-28T21:11:44;6.9;40.6
78708;SHT31;68037;51.978;5.650;2023-02-28T21:14:15;6.9;40.7
78708;SHT31;68037;51.978;5.650;2023-02-28T21:16:47;6.9;40.4
78708;SHT31;68037;51.978;5.650;2023-02-28T21:19:19;6.8;40.8
78708;SHT31;68037;51.978;5.650;2023-02-28T21:21:50;6.8;40.9
78708;SHT31;68037;51.978;5.650;2023-02-28T21:24:20;6.8;41.1
78708;SHT31;68037;51.978;5.650;2023-02-28T21:26:49;6.7;40.8
78708;SHT31;68037;51.978;5.650;2023-02-28T21:29:20;6.7;41.5
78708;SHT31;68037;51.978;5.650;2023-02-28T21:31:51;6.7;41.9
78708;SHT31;68037;51.978;5.650;2023-02-28T21:34:21;6.6;42.0
78708;SHT31;68037;51.978;5.650;2023-02-28T21:36:50;6.6;41.9
78708;SHT31;68037;51.978;5.650;2023-02-28T21:39:22;6.6;41.7
78708;SHT31;68037;51.978;5.650;2023-02-28T21:41:57;6.5;41.8
78708;SHT31;68037;51.978;5.650;2023-02-28T21:44:31;6.5;41.8
78708;SHT31;68037;51.978;5.650;2023-02-28T21:47:00;6.4;42.5
78708;SHT31;68037;51.978;5.650;2023-02-28T21:49:31;6.4;42.7
78708;SHT31;68037;51.978;5.650;2023-02-28T21:52:01;6.4;42.9
78708;SHT31;68037;51.978;5.650;2023-02-28T21:54:30;6.3;43.1
78708;SHT31;68037;51.978;5.650;2023-02-28T21:57:02;6.3;42.5
78708;SHT31;68037;51.978;5.650;2023-02-28T21:59:36;6.4;42.6
78708;SHT31;68037;51.978;5.650;2023-02-28T22:02:07;6.4;42.4
78708;SHT31;68037;51.978;5.650;2023-02-28T22:04:37;6.4;42.5
78708;SHT31;68037;51.978;5.650;2023-02-28T22:07:07;6.4;42.1
78708;SHT31;68037;51.978;5.650;2023-02-28T22:09:36;6.4;42.1
78708;SHT31;68037;51.978;5.650;2023-02-28T22:12:06;6.4;42.6
78708;SHT31;68037;51.978;5.650;2023-02-28T22:14:37;6.4;42.9
78708;SHT31;68037;51.978;5.650;2023-02-28T22:17:07;6.3;43.4
78708;SHT31;68037;51.978;5.650;2023-02-28T22:19:36;6.3;43.4
78708;SHT31;68037;51.978;5.650;2023-02-28T22:22:06;6.3;43.5
78708;SHT31;68037;51.978;5.650;2023-02-28T22:24:35;6.3;44.1
78708;SHT31;68037;51.978;5.650;2023-02-28T22:27:07;6.2;44.0
78708;SHT31;68037;51.978;5.650;2023-02-28T22:29:36;6.3;44.2
78708;SHT31;68037;51.978;5.650;2023-02-28T22:32:08;6.3;43.9
78708;SHT31;68037;51.978;5.650;2023-02-28T22:34:41;6.3;43.5
78708;SHT31;68037;51.978;5.650;2023-02-28T22:37:11;6.4;43.1
78708;SHT31;68037;51.978;5.650;2023-02-28T22:39:41;6.4;42.5
78708;SHT31;68037;51.978;5.650;2023-02-28T22:42:11;6.4;42.7
78708;SHT31;68037;51.978;5.650;2023-02-28T22:44:40;6.4;43.0
78708;SHT31;68037;51.978;5.650;2023-02-28T22:47:13;6.3;43.2
78708;SHT31;68037;51.978;5.650;2023-02-28T22:49:43;6.3;42.9
78708;SHT31;68037;51.978;5.650;2023-02-28T22:52:12;6.3;43.3
78708;SHT31;68037;51.978;5.650;2023-02-28T22:54:42;6.3;43.8
78708;SHT31;68037;51.978;5.650;2023-02-28T22:57:12;6.3;43.9
78708;SHT31;68037;51.978;5.650;2023-02-28T22:59:43;6.3;43.5
78708;SHT31;68037;51.978;5.650;2023-02-28T23:02:12;6.3;43.4
78708;SHT31;68037;51.978;5.650;2023-02-28T23:04:42;6.3;43.3
78708;SHT31;68037;51.978;5.650;2023-02-28T23:07:12;6.3;43.5
78708;SHT31;68037;51.978;5.650;2023-02-28T23:09:42;6.2;43.5
78708;SHT31;68037;51.978;5.650;2023-02-28T23:12:12;6.2;44.1
78708;SHT31;68037;51.978;5.650;2023-02-28T23:14:42;6.2;44.0
78708;SHT31;68037;51.978;5.650;2023-02-28T23:17:11;6.1;42.7
78708;SHT31;68037;51.978;5.650;2023-02-28T23:19:41;6.0;42.7
78708;SHT31;68037;51.978;5.650;2023-02-28T23:22:11;6.0;43.5
78708;SHT31;68037;51.978;5.650;2023-02-28T23:24:40;5.9;44.3
78708;SHT31;68037;51.978;5.650;2023-02-28T23:27:10;5.9;44.3
78708;SHT31;68037;51.978;5.650;2023-02-28T23:29:42;5.9;44.2
78708;SHT31;68037;51.978;5.650;2023-02-28T23:32:12;5.9;44.0
78708;SHT31;68037;51.978;5.650;2023-02-28T23:34:42;5.9;43.3
78708;SHT31;68037;51.978;5.650;2023-02-28T23:37:11;5.9;43.4
78708;SHT31;68037;51.978;5.650;2023-02-28T23:39:41;5.9;43.7
78708;SHT31;68037;51.978;5.650;2023-02-28T23:42:11;5.9;43.9
78708;SHT31;68037;51.978;5.650;2023-02-28T23:44:41;6.0;43.4
78708;SHT31;68037;51.978;5.650;2023-02-28T23:47:13;6.0;43.0
78708;SHT31;68037;51.978;5.650;2023-02-28T23:49:43;5.9;43.2
78708;SHT31;68037;51.978;5.650;2023-02-28T23:52:14;5.9;43.7
78708;SHT31;68037;51.978;5.650;2023-02-28T23:54:44;5.9;44.0
78708;SHT31;68037;51.978;5.650;2023-02-28T23:57:15;5.9;43.8
78708;SHT31;68037;51.978;5.650;2023-02-28T23:59:44;5.9;43.9
